sensor_id;sensor_type;location;lat;lon;timestamp;pressure;altitude;pressure_sealevel;temperature;humidity
73629;BME280;61924;53.268;-2.458;2022-12-18T00:00:13;101615.37;;;8.40;35.74
73629;BME280;61924;53.268;-2.458;2022-12-18T00:02:38;101610.45;;;8.12;35.92
73629;BME280;61924;53.268;-2.458;2022-12-18T00:05:04;101608.44;;;7.89;36.00
73629;BME280;61924;53.268;-2.458;2022-12-18T00:07:28;101614.33;;;7.87;35.83
73629;BME280;61924;53.268;-2.458;2022-12-18T00:09:55;101626.09;;;8.09;35.91
73629;BME280;61924;53.268;-2.458;2022-12-18T00:12:19;101622.84;;;7.97;35.92
73629;BME280;61924;53.268;-2.458;2022-12-18T00:14:45;101615.72;;;7.51;35.91
73629;BME280;61924;53.268;-2.458;2022-12-18T00:17:11;101619.29;;;7.81;36.00
73629;BME280;61924;53.268;-2.458;2022-12-18T00:19:36;101623.79;;;8.28;35.82
73629;BME280;61924;53.268;-2.458;2022-12-18T00:22:02;101623.38;;;8.35;35.52
73629;BME280;61924;53.268;-2.458;2022-12-18T00:24:27;101617.99;;;8.32;35.59
73629;BME280;61924;53.268;-2.458;2022-12-18T00:26:53;101621.95;;;8.12;35.49
73629;BME280;61924;53.268;-2.458;2022-12-18T00:29:18;101622.38;;;8.06;35.64
73629;BME280;61924;53.268;-2.458;2022-12-18T00:31:44;101624.22;;;7.64;35.72
73629;BME280;61924;53.268;-2.458;2022-12-18T00:34:11;101626.21;;;7.31;35.79
73629;BME280;61924;53.268;-2.458;2022-12-18T00:36:35;101618.73;;;7.40;35.73
73629;BME280;61924;53.268;-2.458;2022-12-18T00:39:02;101614.07;;;7.37;35.53
73629;BME280;61924;53.268;-2.458;2022-12-18T00:41:26;101609.61;;;7.49;35.52
73629;BME280;61924;53.268;-2.458;2022-12-18T00:43:50;101611.12;;;7.49;35.42
73629;BME280;61924;53.268;-2.458;2022-12-18T00:46:16;101612.53;;;7.17;35.63
73629;BME280;61924;53.268;-2.458;2022-12-18T00:48:41;101614.13;;;7.41;35.60
73629;BME280;61924;53.268;-2.458;2022-12-18T00:51:06;101612.65;;;7.39;35.58
73629;BME280;61924;53.268;-2.458;2022-12-18T00:53:32;101612.54;;;7.03;35.59
73629;BME280;61924;53.268;-2.458;2022-12-18T00:55:57;101606.04;;;7.08;35.57
73629;BME280;61924;53.268;-2.458;2022-12-18T00:58:23;101600.37;;;6.57;35.88
73629;BME280;61924;53.268;-2.458;2022-12-18T01:00:48;101602.86;;;6.75;35.84
73629;BME280;61924;53.268;-2.458;2022-12-18T01:03:14;101605.21;;;7.18;35.59
73629;BME280;61924;53.268;-2.458;2022-12-18T01:05:40;101605.31;;;7.22;35.52
73629;BME280;61924;53.268;-2.458;2022-12-18T01:08:05;101605.40;;;7.28;35.31
73629;BME280;61924;53.268;-2.458;2022-12-18T01:10:31;101593.68;;;6.95;35.40
73629;BME280;61924;53.268;-2.458;2022-12-18T01:12:56;101590.23;;;7.56;35.26
73629;BME280;61924;53.268;-2.458;2022-12-18T01:15:21;101585.98;;;6.94;35.33
73629;BME280;61924;53.268;-2.458;2022-12-18T01:17:47;101582.41;;;6.99;35.30
73629;BME280;61924;53.268;-2.458;2022-12-18T01:20:12;101579.95;;;7.22;35.33
73629;BME280;61924;53.268;-2.458;2022-12-18T01:22:38;101580.81;;;6.84;35.36
73629;BME280;61924;53.268;-2.458;2022-12-18T01:25:04;101582.43;;;6.86;35.31
73629;BME280;61924;53.268;-2.458;2022-12-18T01:27:28;101586.47;;;7.04;35.21
73629;BME280;61924;53.268;-2.458;2022-12-18T01:29:54;101588.11;;;7.32;35.11
73629;BME280;61924;53.268;-2.458;2022-12-18T01:32:19;101587.97;;;7.07;35.08
73629;BME280;61924;53.268;-2.458;2022-12-18T01:34:45;101590.53;;;6.84;35.12
73629;BME280;61924;53.268;-2.458;2022-12-18T01:37:10;101584.70;;;6.83;35.26
73629;BME280;61924;53.268;-2.458;2022-12-18T01:39:36;101582.16;;;6.40;35.34
73629;BME280;61924;53.268;-2.458;2022-12-18T01:42:03;101578.89;;;7.04;35.06
73629;BME280;61924;53.268;-2.458;2022-12-18T01:45:02;101574.77;;;7.30;34.99
73629;BME280;61924;53.268;-2.458;2022-12-18T01:46:51;101572.42;;;7.11;35.16
73629;BME280;61924;53.268;-2.458;2022-12-18T01:49:17;101576.08;;;7.67;34.84
73629;BME280;61924;53.268;-2.458;2022-12-18T01:51:43;101577.52;;;7.03;34.91
73629;BME280;61924;53.268;-2.458;2022-12-18T01:54:08;101576.29;;;7.04;34.99
73629;BME280;61924;53.268;-2.458;2022-12-18T01:56:34;101572.20;;;6.71;35.20
73629;BME280;61924;53.268;-2.458;2022-12-18T01:59:02;101573.44;;;6.53;35.15
73629;BME280;61924;53.268;-2.458;2022-12-18T02:01:25;101575.81;;;7.08;34.83
73629;BME280;61924;53.268;-2.458;2022-12-18T02:03:51;101572.75;;;7.59;34.46
73629;BME280;61924;53.268;-2.458;2022-12-18T02:06:18;101578.46;;;6.77;34.87
73629;BME280;61924;53.268;-2.458;2022-12-18T02:08:48;101587.58;;;6.68;34.86
73629;BME280;61924;53.268;-2.458;2022-12-18T02:11:10;101595.10;;;7.57;34.45
73629;BME280;61924;53.268;-2.458;2022-12-18T02:13:38;101600.38;;;7.99;34.14
73629;BME280;61924;53.268;-2.458;2022-12-18T02:16:03;101596.89;;;7.54;34.34
73629;BME280;61924;53.268;-2.458;2022-12-18T02:18:27;101592.96;;;6.58;34.88
73629;BME280;61924;53.268;-2.458;2022-12-18T02:20:53;101588.56;;;6.22;34.95
73629;BME280;61924;53.268;-2.458;2022-12-18T02:23:35;101600.83;;;5.90;35.08
73629;BME280;61924;53.268;-2.458;2022-12-18T02:25:56;101602.51;;;6.67;34.69
73629;BME280;61924;53.268;-2.458;2022-12-18T02:28:08;101604.94;;;6.97;34.64
73629;BME280;61924;53.268;-2.458;2022-12-18T02:30:32;101606.17;;;7.27;34.42
73629;BME280;61924;53.268;-2.458;2022-12-18T02:32:57;101605.76;;;6.91;34.55
73629;BME280;61924;53.268;-2.458;2022-12-18T02:35:24;101612.86;;;6.27;34.81
73629;BME280;61924;53.268;-2.458;2022-12-18T02:37:47;101608.00;;;7.21;34.28
73629;BME280;61924;53.268;-2.458;2022-12-18T02:40:13;101604.90;;;7.05;34.23
73629;BME280;61924;53.268;-2.458;2022-12-18T02:42:38;101601.50;;;7.81;33.98
73629;BME280;61924;53.268;-2.458;2022-12-18T02:45:04;101602.64;;;6.89;34.19
73629;BME280;61924;53.268;-2.458;2022-12-18T02:47:32;101607.70;;;6.23;34.70
73629;BME280;61924;53.268;-2.458;2022-12-18T02:50:02;101610.18;;;6.61;34.47
73629;BME280;61924;53.268;-2.458;2022-12-18T02:52:27;101610.45;;;6.07;34.71
73629;BME280;61924;53.268;-2.458;2022-12-18T02:54:55;101605.74;;;6.08;34.82
73629;BME280;61924;53.268;-2.458;2022-12-18T02:57:16;101604.20;;;5.96;34.75
73629;BME280;61924;53.268;-2.458;2022-12-18T02:59:39;101602.82;;;5.92;34.92
73629;BME280;61924;53.268;-2.458;2022-12-18T03:02:07;101603.13;;;5.82;34.84
73629;BME280;61924;53.268;-2.458;2022-12-18T03:04:31;101602.40;;;5.75;34.92
73629;BME280;61924;53.268;-2.458;2022-12-18T03:06:55;101596.66;;;5.82;34.94
73629;BME280;61924;53.268;-2.458;2022-12-18T03:09:21;101590.27;;;5.75;34.82
73629;BME280;61924;53.268;-2.458;2022-12-18T03:11:46;101583.59;;;6.06;34.77
73629;BME280;61924;53.268;-2.458;2022-12-18T03:14:09;101578.55;;;5.87;34.94
73629;BME280;61924;53.268;-2.458;2022-12-18T03:16:34;101577.36;;;5.67;34.86
73629;BME280;61924;53.268;-2.458;2022-12-18T03:19:01;101575.26;;;6.45;34.70
73629;BME280;61924;53.268;-2.458;2022-12-18T03:21:29;101572.38;;;5.35;35.18
73629;BME280;61924;53.268;-2.458;2022-12-18T03:23:51;101560.31;;;5.68;35.05
73629;BME280;61924;53.268;-2.458;2022-12-18T03:26:17;101546.92;;;5.58;35.19
73629;BME280;61924;53.268;-2.458;2022-12-18T03:28:44;101535.89;;;5.61;35.07
73629;BME280;61924;53.268;-2.458;2022-12-18T03:31:08;101531.14;;;5.49;35.01
73629;BME280;61924;53.268;-2.458;2022-12-18T03:33:34;101525.07;;;5.44;34.94
73629;BME280;61924;53.268;-2.458;2022-12-18T03:35:55;101516.81;;;6.01;34.71
73629;BME280;61924;53.268;-2.458;2022-12-18T03:38:21;101511.75;;;6.20;34.31
73629;BME280;61924;53.268;-2.458;2022-12-18T03:40:54;101510.64;;;6.53;34.07
73629;BME280;61924;53.268;-2.458;2022-12-18T03:43:20;101511.13;;;7.25;33.93
73629;BME280;61924;53.268;-2.458;2022-12-18T03:45:42;101508.82;;;6.51;34.34
73629;BME280;61924;53.268;-2.458;2022-12-18T03:48:07;101503.88;;;6.18;34.30
73629;BME280;61924;53.268;-2.458;2022-12-18T03:50:36;101497.70;;;6.07;34.52
73629;BME280;61924;53.268;-2.458;2022-12-18T03:52:57;101497.96;;;5.73;34.61
73629;BME280;61924;53.268;-2.458;2022-12-18T03:55:21;101494.83;;;5.90;34.46
73629;BME280;61924;53.268;-2.458;2022-12-18T03:57:45;101500.63;;;5.73;34.59
73629;BME280;61924;53.268;-2.458;2022-12-18T04:00:12;101500.40;;;5.39;34.71
73629;BME280;61924;53.268;-2.458;2022-12-18T04:02:39;101496.06;;;5.67;34.69
73629;BME280;61924;53.268;-2.458;2022-12-18T04:05:04;101492.05;;;5.68;34.59
73629;BME280;61924;53.268;-2.458;2022-12-18T04:07:27;101491.88;;;5.71;34.75
73629;BME280;61924;53.268;-2.458;2022-12-18T04:09:54;101480.91;;;5.83;34.68
73629;BME280;61924;53.268;-2.458;2022-12-18T04:12:17;101473.07;;;5.92;34.68
73629;BME280;61924;53.268;-2.458;2022-12-18T04:14:43;101464.82;;;6.57;34.34
73629;BME280;61924;53.268;-2.458;2022-12-18T04:17:08;101453.22;;;6.60;34.21
73629;BME280;61924;53.268;-2.458;2022-12-18T04:19:33;101453.23;;;6.62;34.32
73629;BME280;61924;53.268;-2.458;2022-12-18T04:21:59;101444.94;;;6.56;34.21
73629;BME280;61924;53.268;-2.458;2022-12-18T04:24:24;101438.05;;;6.96;33.94
73629;BME280;61924;53.268;-2.458;2022-12-18T04:26:49;101425.71;;;6.66;33.99
73629;BME280;61924;53.268;-2.458;2022-12-18T04:29:15;101418.59;;;6.99;33.97
73629;BME280;61924;53.268;-2.458;2022-12-18T04:31:40;101408.72;;;6.86;33.79
73629;BME280;61924;53.268;-2.458;2022-12-18T04:34:06;101412.05;;;7.37;33.80
73629;BME280;61924;53.268;-2.458;2022-12-18T04:36:31;101416.10;;;6.62;33.89
73629;BME280;61924;53.268;-2.458;2022-12-18T04:38:56;101418.57;;;6.90;33.84
73629;BME280;61924;53.268;-2.458;2022-12-18T04:41:21;101415.91;;;7.16;33.70
73629;BME280;61924;53.268;-2.458;2022-12-18T04:43:46;101404.40;;;6.95;33.77
73629;BME280;61924;53.268;-2.458;2022-12-18T04:46:12;101387.36;;;7.03;33.78
73629;BME280;61924;53.268;-2.458;2022-12-18T04:48:37;101375.08;;;6.98;33.84
73629;BME280;61924;53.268;-2.458;2022-12-18T04:51:03;101365.44;;;6.94;33.83
73629;BME280;61924;53.268;-2.458;2022-12-18T04:53:28;101363.29;;;6.66;33.94
73629;BME280;61924;53.268;-2.458;2022-12-18T04:56:03;101361.03;;;6.81;33.86
73629;BME280;61924;53.268;-2.458;2022-12-18T04:58:18;101353.52;;;6.76;33.87
73629;BME280;61924;53.268;-2.458;2022-12-18T05:00:44;101348.08;;;7.25;33.78
73629;BME280;61924;53.268;-2.458;2022-12-18T05:03:10;101343.25;;;6.74;34.01
73629;BME280;61924;53.268;-2.458;2022-12-18T05:05:35;101346.86;;;6.58;34.08
73629;BME280;61924;53.268;-2.458;2022-12-18T05:08:01;101350.48;;;6.41;34.04
73629;BME280;61924;53.268;-2.458;2022-12-18T05:10:26;101349.51;;;6.52;34.05
73629;BME280;61924;53.268;-2.458;2022-12-18T05:12:52;101339.64;;;6.36;34.32
73629;BME280;61924;53.268;-2.458;2022-12-18T05:15:18;101334.21;;;6.68;34.11
73629;BME280;61924;53.268;-2.458;2022-12-18T05:17:43;101335.72;;;6.15;34.25
73629;BME280;61924;53.268;-2.458;2022-12-18T05:20:10;101342.82;;;6.28;34.15
73629;BME280;61924;53.268;-2.458;2022-12-18T05:22:34;101343.85;;;6.22;34.31
73629;BME280;61924;53.268;-2.458;2022-12-18T05:24:59;101348.09;;;6.17;34.36
73629;BME280;61924;53.268;-2.458;2022-12-18T05:27:25;101352.96;;;6.58;34.21
73629;BME280;61924;53.268;-2.458;2022-12-18T05:29:50;101362.91;;;6.54;34.10
73629;BME280;61924;53.268;-2.458;2022-12-18T05:32:16;101366.13;;;6.55;34.07
73629;BME280;61924;53.268;-2.458;2022-12-18T05:34:41;101369.12;;;6.62;34.05
73629;BME280;61924;53.268;-2.458;2022-12-18T05:37:06;101367.43;;;6.71;34.03
73629;BME280;61924;53.268;-2.458;2022-12-18T05:39:32;101373.36;;;6.73;33.90
73629;BME280;61924;53.268;-2.458;2022-12-18T05:41:57;101383.65;;;6.34;33.86
73629;BME280;61924;53.268;-2.458;2022-12-18T05:44:23;101378.50;;;6.78;33.91
73629;BME280;61924;53.268;-2.458;2022-12-18T05:46:49;101365.86;;;6.62;33.87
73629;BME280;61924;53.268;-2.458;2022-12-18T05:49:14;101365.11;;;6.77;33.74
73629;BME280;61924;53.268;-2.458;2022-12-18T05:51:40;101353.85;;;6.79;33.55
73629;BME280;61924;53.268;-2.458;2022-12-18T05:54:06;101340.41;;;6.53;33.55
73629;BME280;61924;53.268;-2.458;2022-12-18T05:56:31;101339.31;;;7.14;33.44
73629;BME280;61924;53.268;-2.458;2022-12-18T05:58:56;101338.58;;;6.62;33.46
73629;BME280;61924;53.268;-2.458;2022-12-18T06:01:24;101348.93;;;6.34;33.57
73629;BME280;61924;53.268;-2.458;2022-12-18T06:03:46;101353.41;;;6.44;33.63
73629;BME280;61924;53.268;-2.458;2022-12-18T06:06:14;101344.02;;;6.59;33.39
73629;BME280;61924;53.268;-2.458;2022-12-18T06:08:37;101347.46;;;6.31;33.42
73629;BME280;61924;53.268;-2.458;2022-12-18T06:11:02;101351.83;;;6.35;33.42
73629;BME280;61924;53.268;-2.458;2022-12-18T06:13:27;101344.05;;;7.25;33.08
73629;BME280;61924;53.268;-2.458;2022-12-18T06:15:53;101328.75;;;7.04;33.17
73629;BME280;61924;53.268;-2.458;2022-12-18T06:18:18;101329.04;;;6.72;33.49
73629;BME280;61924;53.268;-2.458;2022-12-18T06:20:43;101331.51;;;6.52;33.56
73629;BME280;61924;53.268;-2.458;2022-12-18T06:23:09;101337.07;;;6.76;33.68
73629;BME280;61924;53.268;-2.458;2022-12-18T06:25:38;101334.44;;;6.81;33.64
73629;BME280;61924;53.268;-2.458;2022-12-18T06:28:00;101333.30;;;7.11;33.67
73629;BME280;61924;53.268;-2.458;2022-12-18T06:30:25;101326.69;;;7.05;33.72
73629;BME280;61924;53.268;-2.458;2022-12-18T06:32:51;101316.48;;;7.06;33.83
73629;BME280;61924;53.268;-2.458;2022-12-18T06:35:16;101317.43;;;6.94;33.86
73629;BME280;61924;53.268;-2.458;2022-12-18T06:37:42;101317.96;;;6.98;33.84
73629;BME280;61924;53.268;-2.458;2022-12-18T06:40:08;101318.10;;;6.98;33.81
73629;BME280;61924;53.268;-2.458;2022-12-18T06:42:33;101311.89;;;7.48;33.75
73629;BME280;61924;53.268;-2.458;2022-12-18T06:44:59;101311.71;;;7.30;33.78
73629;BME280;61924;53.268;-2.458;2022-12-18T06:47:25;101310.62;;;7.18;33.72
73629;BME280;61924;53.268;-2.458;2022-12-18T06:49:50;101310.24;;;7.39;33.63
73629;BME280;61924;53.268;-2.458;2022-12-18T06:52:16;101315.62;;;7.09;33.68
73629;BME280;61924;53.268;-2.458;2022-12-18T06:54:41;101304.89;;;7.56;33.66
73629;BME280;61924;53.268;-2.458;2022-12-18T06:57:06;101298.67;;;7.54;33.77
73629;BME280;61924;53.268;-2.458;2022-12-18T06:59:32;101291.63;;;7.62;33.70
73629;BME280;61924;53.268;-2.458;2022-12-18T07:01:58;101285.06;;;7.54;33.77
73629;BME280;61924;53.268;-2.458;2022-12-18T07:04:27;101289.11;;;7.82;33.69
73629;BME280;61924;53.268;-2.458;2022-12-18T07:06:48;101285.25;;;7.78;33.61
73629;BME280;61924;53.268;-2.458;2022-12-18T07:09:13;101286.75;;;7.98;33.53
73629;BME280;61924;53.268;-2.458;2022-12-18T07:11:38;101287.95;;;7.77;33.46
73629;BME280;61924;53.268;-2.458;2022-12-18T07:14:04;101277.53;;;7.74;33.52
73629;BME280;61924;53.268;-2.458;2022-12-18T07:16:29;101273.17;;;7.84;33.49
73629;BME280;61924;53.268;-2.458;2022-12-18T07:18:55;101267.03;;;7.95;33.40
73629;BME280;61924;53.268;-2.458;2022-12-18T07:21:21;101261.37;;;7.72;33.35
73629;BME280;61924;53.268;-2.458;2022-12-18T07:23:46;101259.99;;;8.25;33.18
73629;BME280;61924;53.268;-2.458;2022-12-18T07:26:13;101254.71;;;9.87;31.12
73629;BME280;61924;53.268;-2.458;2022-12-18T07:28:38;101252.10;;;8.86;30.73
73629;BME280;61924;53.268;-2.458;2022-12-18T07:31:03;101263.22;;;7.15;31.79
73629;BME280;61924;53.268;-2.458;2022-12-18T07:33:28;101264.94;;;7.17;32.02
73629;BME280;61924;53.268;-2.458;2022-12-18T07:35:53;101271.38;;;7.16;31.99
73629;BME280;61924;53.268;-2.458;2022-12-18T07:38:18;101279.61;;;6.70;32.07
73629;BME280;61924;53.268;-2.458;2022-12-18T07:40:44;101279.53;;;7.08;32.06
73629;BME280;61924;53.268;-2.458;2022-12-18T07:43:09;101273.66;;;7.33;32.07
73629;BME280;61924;53.268;-2.458;2022-12-18T07:45:35;101263.64;;;7.52;32.11
73629;BME280;61924;53.268;-2.458;2022-12-18T07:48:00;101266.43;;;7.71;31.92
73629;BME280;61924;53.268;-2.458;2022-12-18T07:50:25;101261.77;;;7.48;32.12
73629;BME280;61924;53.268;-2.458;2022-12-18T07:52:50;101264.55;;;7.24;32.22
73629;BME280;61924;53.268;-2.458;2022-12-18T07:55:16;101271.92;;;7.84;31.97
73629;BME280;61924;53.268;-2.458;2022-12-18T07:57:41;101273.66;;;7.79;32.13
73629;BME280;61924;53.268;-2.458;2022-12-18T08:00:08;101276.21;;;7.60;32.17
73629;BME280;61924;53.268;-2.458;2022-12-18T08:02:33;101279.43;;;7.57;32.29
73629;BME280;61924;53.268;-2.458;2022-12-18T08:04:58;101273.39;;;7.59;32.33
73629;BME280;61924;53.268;-2.458;2022-12-18T08:07:24;101291.28;;;8.30;32.12
73629;BME280;61924;53.268;-2.458;2022-12-18T08:09:49;101289.52;;;7.76;32.40
73629;BME280;61924;53.268;-2.458;2022-12-18T08:12:14;101283.74;;;7.68;32.50
73629;BME280;61924;53.268;-2.458;2022-12-18T08:14:40;101275.90;;;7.61;32.54
73629;BME280;61924;53.268;-2.458;2022-12-18T08:17:05;101279.56;;;7.91;32.35
73629;BME280;61924;53.268;-2.458;2022-12-18T08:19:30;101282.44;;;7.88;32.29
73629;BME280;61924;53.268;-2.458;2022-12-18T08:21:56;101282.27;;;7.91;32.36
73629;BME280;61924;53.268;-2.458;2022-12-18T08:24:21;101269.69;;;8.12;32.34
73629;BME280;61924;53.268;-2.458;2022-12-18T08:26:47;101264.64;;;8.59;32.15
73629;BME280;61924;53.268;-2.458;2022-12-18T08:29:12;101260.61;;;8.65;32.32
73629;BME280;61924;53.268;-2.458;2022-12-18T08:31:38;101260.81;;;8.46;32.33
73629;BME280;61924;53.268;-2.458;2022-12-18T08:34:03;101252.32;;;8.70;32.16
73629;BME280;61924;53.268;-2.458;2022-12-18T08:36:29;101259.64;;;8.71;32.17
73629;BME280;61924;53.268;-2.458;2022-12-18T08:38:55;101247.18;;;8.57;32.17
73629;BME280;61924;53.268;-2.458;2022-12-18T08:41:20;101232.98;;;8.92;32.01
73629;BME280;61924;53.268;-2.458;2022-12-18T08:43:45;101213.43;;;8.45;32.08
73629;BME280;61924;53.268;-2.458;2022-12-18T08:46:11;101209.31;;;8.56;32.05
73629;BME280;61924;53.268;-2.458;2022-12-18T08:48:36;101196.91;;;8.70;32.04
73629;BME280;61924;53.268;-2.458;2022-12-18T08:51:01;101180.60;;;9.00;32.05
73629;BME280;61924;53.268;-2.458;2022-12-18T08:53:27;101163.24;;;9.08;32.08
73629;BME280;61924;53.268;-2.458;2022-12-18T08:55:53;101163.33;;;9.24;32.38
73629;BME280;61924;53.268;-2.458;2022-12-18T08:58:18;101160.64;;;8.90;32.44
73629;BME280;61924;53.268;-2.458;2022-12-18T09:00:44;101156.62;;;10.06;32.07
73629;BME280;61924;53.268;-2.458;2022-12-18T09:03:11;101149.29;;;10.29;32.15
73629;BME280;61924;53.268;-2.458;2022-12-18T09:05:35;101142.69;;;10.26;32.06
73629;BME280;61924;53.268;-2.458;2022-12-18T09:08:00;101143.84;;;10.73;31.95
73629;BME280;61924;53.268;-2.458;2022-12-18T09:10:25;101141.95;;;10.57;31.93
73629;BME280;61924;53.268;-2.458;2022-12-18T09:12:50;101139.63;;;10.21;32.12
73629;BME280;61924;53.268;-2.458;2022-12-18T09:15:16;101127.16;;;10.01;32.12
73629;BME280;61924;53.268;-2.458;2022-12-18T09:17:41;101114.74;;;9.90;32.12
73629;BME280;61924;53.268;-2.458;2022-12-18T09:20:08;101117.00;;;10.14;31.98
73629;BME280;61924;53.268;-2.458;2022-12-18T09:22:33;101119.75;;;9.90;31.95
73629;BME280;61924;53.268;-2.458;2022-12-18T09:24:58;101117.10;;;9.71;31.98
73629;BME280;61924;53.268;-2.458;2022-12-18T09:27:24;101112.58;;;10.07;31.84
73629;BME280;61924;53.268;-2.458;2022-12-18T09:29:49;101098.79;;;9.93;31.85
73629;BME280;61924;53.268;-2.458;2022-12-18T09:32:15;101090.10;;;10.04;31.73
73629;BME280;61924;53.268;-2.458;2022-12-18T09:34:40;101086.91;;;9.82;30.82
73629;BME280;61924;53.268;-2.458;2022-12-18T09:37:05;101078.41;;;9.87;30.27
73629;BME280;61924;53.268;-2.458;2022-12-18T09:39:31;101075.84;;;10.13;29.32
73629;BME280;61924;53.268;-2.458;2022-12-18T09:41:58;101077.67;;;7.00;30.66
73629;BME280;61924;53.268;-2.458;2022-12-18T09:44:26;101078.31;;;8.11;30.55
73629;BME280;61924;53.268;-2.458;2022-12-18T09:46:51;101066.93;;;8.79;30.37
73629;BME280;61924;53.268;-2.458;2022-12-18T09:49:17;101060.59;;;8.93;30.23
73629;BME280;61924;53.268;-2.458;2022-12-18T09:51:42;101052.94;;;9.17;30.20
73629;BME280;61924;53.268;-2.458;2022-12-18T09:54:06;101048.42;;;9.18;30.29
73629;BME280;61924;53.268;-2.458;2022-12-18T09:56:35;101043.26;;;9.33;30.48
73629;BME280;61924;53.268;-2.458;2022-12-18T09:58:58;101035.17;;;8.63;30.93
73629;BME280;61924;53.268;-2.458;2022-12-18T10:01:22;101031.00;;;9.43;30.95
73629;BME280;61924;53.268;-2.458;2022-12-18T10:03:45;101022.15;;;9.27;30.97
73629;BME280;61924;53.268;-2.458;2022-12-18T10:06:15;101018.66;;;9.66;30.80
73629;BME280;61924;53.268;-2.458;2022-12-18T10:08:41;101021.87;;;9.84;31.01
73629;BME280;61924;53.268;-2.458;2022-12-18T10:11:21;101019.10;;;9.39;31.39
73629;BME280;61924;53.268;-2.458;2022-12-18T10:13:33;101021.10;;;9.79;31.70
73629;BME280;61924;53.268;-2.458;2022-12-18T10:16:03;101023.23;;;9.40;32.03
73629;BME280;61924;53.268;-2.458;2022-12-18T10:18:28;101016.67;;;9.50;32.15
73629;BME280;61924;53.268;-2.458;2022-12-18T10:20:46;101014.39;;;9.34;32.37
73629;BME280;61924;53.268;-2.458;2022-12-18T10:23:15;101009.56;;;9.13;32.37
73629;BME280;61924;53.268;-2.458;2022-12-18T10:25:41;101008.87;;;9.57;32.35
73629;BME280;61924;53.268;-2.458;2022-12-18T10:28:10;101005.32;;;9.31;32.80
73629;BME280;61924;53.268;-2.458;2022-12-18T10:30:26;100993.65;;;9.10;33.31
73629;BME280;61924;53.268;-2.458;2022-12-18T10:32:52;100986.89;;;9.56;33.31
73629;BME280;61924;53.268;-2.458;2022-12-18T10:35:20;100987.39;;;9.48;33.66
73629;BME280;61924;53.268;-2.458;2022-12-18T10:38:00;100981.47;;;9.64;34.06
73629;BME280;61924;53.268;-2.458;2022-12-18T10:40:11;100973.02;;;9.11;35.05
73629;BME280;61924;53.268;-2.458;2022-12-18T10:42:33;100965.30;;;8.99;34.72
73629;BME280;61924;53.268;-2.458;2022-12-18T10:45:03;100947.91;;;9.16;34.36
73629;BME280;61924;53.268;-2.458;2022-12-18T10:47:24;100933.59;;;9.55;34.81
73629;BME280;61924;53.268;-2.458;2022-12-18T10:49:52;100928.77;;;8.48;36.24
73629;BME280;61924;53.268;-2.458;2022-12-18T10:52:18;100923.50;;;9.15;35.92
73629;BME280;61924;53.268;-2.458;2022-12-18T10:54:46;100912.24;;;8.95;35.48
73629;BME280;61924;53.268;-2.458;2022-12-18T10:57:33;100913.63;;;9.06;35.19
73629;BME280;61924;53.268;-2.458;2022-12-18T10:59:50;100916.44;;;9.30;35.85
73629;BME280;61924;53.268;-2.458;2022-12-18T11:01:57;100919.44;;;8.85;36.18
73629;BME280;61924;53.268;-2.458;2022-12-18T11:04:23;100917.08;;;8.50;36.01
73629;BME280;61924;53.268;-2.458;2022-12-18T11:06:57;100915.15;;;8.83;35.77
73629;BME280;61924;53.268;-2.458;2022-12-18T11:09:20;100908.79;;;9.69;35.06
73629;BME280;61924;53.268;-2.458;2022-12-18T11:11:38;100896.44;;;9.72;34.82
73629;BME280;61924;53.268;-2.458;2022-12-18T11:14:19;100899.20;;;8.75;35.33
73629;BME280;61924;53.268;-2.458;2022-12-18T11:16:31;100894.17;;;8.75;35.00
73629;BME280;61924;53.268;-2.458;2022-12-18T11:18:54;100893.95;;;8.60;34.90
73629;BME280;61924;53.268;-2.458;2022-12-18T11:21:20;100896.17;;;9.21;34.34
73629;BME280;61924;53.268;-2.458;2022-12-18T11:23:48;100892.80;;;8.28;34.69
73629;BME280;61924;53.268;-2.458;2022-12-18T11:26:11;100896.10;;;7.98;34.77
73629;BME280;61924;53.268;-2.458;2022-12-18T11:28:38;100878.82;;;9.37;34.03
73629;BME280;61924;53.268;-2.458;2022-12-18T11:31:17;100875.02;;;8.06;34.67
73629;BME280;61924;53.268;-2.458;2022-12-18T11:33:28;100868.66;;;9.09;34.50
73629;BME280;61924;53.268;-2.458;2022-12-18T11:35:56;100867.79;;;9.81;34.30
73629;BME280;61924;53.268;-2.458;2022-12-18T11:38:22;100857.34;;;10.51;33.91
73629;BME280;61924;53.268;-2.458;2022-12-18T11:40:45;100844.06;;;10.55;33.67
73629;BME280;61924;53.268;-2.458;2022-12-18T11:43:13;100831.55;;;10.86;33.42
73629;BME280;61924;53.268;-2.458;2022-12-18T11:45:38;100832.28;;;10.27;33.79
73629;BME280;61924;53.268;-2.458;2022-12-18T11:48:03;100829.50;;;10.80;33.41
73629;BME280;61924;53.268;-2.458;2022-12-18T11:50:30;100825.54;;;10.02;33.85
73629;BME280;61924;53.268;-2.458;2022-12-18T11:52:52;100813.35;;;10.48;33.52
73629;BME280;61924;53.268;-2.458;2022-12-18T11:55:27;100798.86;;;10.58;33.19
73629;BME280;61924;53.268;-2.458;2022-12-18T11:57:51;100790.08;;;10.77;33.06
73629;BME280;61924;53.268;-2.458;2022-12-18T12:00:13;100785.61;;;10.96;32.91
73629;BME280;61924;53.268;-2.458;2022-12-18T12:02:42;100780.23;;;10.69;33.04
73629;BME280;61924;53.268;-2.458;2022-12-18T12:05:13;100764.87;;;10.48;33.03
73629;BME280;61924;53.268;-2.458;2022-12-18T12:07:34;100760.82;;;10.36;33.09
73629;BME280;61924;53.268;-2.458;2022-12-18T12:09:59;100750.49;;;9.93;32.92
73629;BME280;61924;53.268;-2.458;2022-12-18T12:12:24;100735.71;;;10.15;32.78
73629;BME280;61924;53.268;-2.458;2022-12-18T12:14:49;100729.81;;;10.65;32.61
73629;BME280;61924;53.268;-2.458;2022-12-18T12:17:13;100718.99;;;10.89;32.83
73629;BME280;61924;53.268;-2.458;2022-12-18T12:19:38;100718.80;;;11.36;32.69
73629;BME280;61924;53.268;-2.458;2022-12-18T12:22:05;100711.16;;;11.10;32.72
73629;BME280;61924;53.268;-2.458;2022-12-18T12:24:33;100706.14;;;10.85;32.66
73629;BME280;61924;53.268;-2.458;2022-12-18T12:26:54;100706.22;;;11.17;32.69
73629;BME280;61924;53.268;-2.458;2022-12-18T12:29:26;100701.01;;;11.11;32.93
73629;BME280;61924;53.268;-2.458;2022-12-18T12:31:49;100690.97;;;11.03;33.12
73629;BME280;61924;53.268;-2.458;2022-12-18T12:34:11;100688.84;;;10.92;33.19
73629;BME280;61924;53.268;-2.458;2022-12-18T12:36:38;100689.49;;;11.13;33.06